sensor_id;sensor_type;location;lat;lon;timestamp;temperature;humidity
20911;DHT22;10615;42.702;23.314;2023-04-25T00:00:20;12.80;99.90
20911;DHT22;10615;42.702;23.314;2023-04-25T00:01:21;12.80;99.90
20911;DHT22;10615;42.702;23.314;2023-04-25T00:02:24;12.80;99.90
20911;DHT22;10615;42.702;23.314;2023-04-25T00:03:25;12.70;99.90
20911;DHT22;10615;42.702;23.314;2023-04-25T00:04:27;12.70;99.90
20911;DHT22;10615;42.702;23.314;2023-04-25T00:05:28;12.70;99.90
20911;DHT22;10615;42.702;23.314;2023-04-25T00:06:29;12.70;99.90
20911;DHT22;10615;42.702;23.314;2023-04-25T00:07:32;12.60;99.90
20911;DHT22;10615;42.702;23.314;2023-04-25T00:08:32;12.60;99.90
20911;DHT22;10615;42.702;23.314;2023-04-25T00:09:33;12.60;99.90
20911;DHT22;10615;42.702;23.314;2023-04-25T00:10:34;12.60;99.90
20911;DHT22;10615;42.702;23.314;2023-04-25T00:11:34;12.60;99.90
20911;DHT22;10615;42.702;23.314;2023-04-25T00:12:35;12.50;99.90
20911;DHT22;10615;42.702;23.314;2023-04-25T00:13:36;12.50;99.90
20911;DHT22;10615;42.702;23.314;2023-04-25T00:14:37;12.50;99.90
20911;DHT22;10615;42.702;23.314;2023-04-25T00:15:37;12.50;99.90
20911;DHT22;10615;42.702;23.314;2023-04-25T00:16:39;12.40;99.90
20911;DHT22;10615;42.702;23.314;2023-04-25T00:17:41;12.40;99.90
20911;DHT22;10615;42.702;23.314;2023-04-25T00:18:42;12.40;99.90
20911;DHT22;10615;42.702;23.314;2023-04-25T00:19:43;12.30;99.90
20911;DHT22;10615;42.702;23.314;2023-04-25T00:20:46;12.30;99.90
20911;DHT22;10615;42.702;23.314;2023-04-25T00:21:47;12.30;99.90
20911;DHT22;10615;42.702;23.314;2023-04-25T00:22:48;12.30;99.90
20911;DHT22;10615;42.702;23.314;2023-04-25T00:23:48;12.20;99.90
20911;DHT22;10615;42.702;23.314;2023-04-25T00:24:49;12.20;99.90
20911;DHT22;10615;42.702;23.314;2023-04-25T00:25:50;12.20;99.90
20911;DHT22;10615;42.702;23.314;2023-04-25T00:26:51;12.20;99.90
20911;DHT22;10615;42.702;23.314;2023-04-25T00:27:52;12.20;99.90
20911;DHT22;10615;42.702;23.314;2023-04-25T00:28:52;12.20;99.90
20911;DHT22;10615;42.702;23.314;2023-04-25T00:29:53;12.10;99.90
20911;DHT22;10615;42.702;23.314;2023-04-25T00:30:54;12.10;99.90
20911;DHT22;10615;42.702;23.314;2023-04-25T00:31:54;12.10;99.90
20911;DHT22;10615;42.702;23.314;2023-04-25T00:32:55;12.10;99.90
20911;DHT22;10615;42.702;23.314;2023-04-25T00:33:56;12.10;99.90
20911;DHT22;10615;42.702;23.314;2023-04-25T00:34:56;12.10;99.90
20911;DHT22;10615;42.702;23.314;2023-04-25T00:35:58;12.00;99.90
20911;DHT22;10615;42.702;23.314;2023-04-25T00:36:59;12.10;99.90
20911;DHT22;10615;42.702;23.314;2023-04-25T00:38:02;12.00;99.90
20911;DHT22;10615;42.702;23.314;2023-04-25T00:39:03;12.00;99.90
20911;DHT22;10615;42.702;23.314;2023-04-25T00:40:05;12.00;99.90
20911;DHT22;10615;42.702;23.314;2023-04-25T00:41:07;12.00;99.90
20911;DHT22;10615;42.702;23.314;2023-04-25T00:42:08;12.00;99.90
20911;DHT22;10615;42.702;23.314;2023-04-25T00:43:09;12.00;99.90
20911;DHT22;10615;42.702;23.314;2023-04-25T00:44:10;12.00;99.90
20911;DHT22;10615;42.702;23.314;2023-04-25T00:45:14;12.00;99.90
20911;DHT22;10615;42.702;23.314;2023-04-25T00:46:15;12.00;99.90
20911;DHT22;10615;42.702;23.314;2023-04-25T00:47:16;12.10;99.90
20911;DHT22;10615;42.702;23.314;2023-04-25T00:48:17;12.10;99.90
20911;DHT22;10615;42.702;23.314;2023-04-25T00:49:18;12.10;99.90
20911;DHT22;10615;42.702;23.314;2023-04-25T00:50:18;12.10;99.90
20911;DHT22;10615;42.702;23.314;2023-04-25T00:51:20;12.10;99.90
20911;DHT22;10615;42.702;23.314;2023-04-25T00:52:21;12.20;99.90
20911;DHT22;10615;42.702;23.314;2023-04-25T00:53:23;12.20;99.90
20911;DHT22;10615;42.702;23.314;2023-04-25T00:54:24;12.20;99.90
20911;DHT22;10615;42.702;23.314;2023-04-25T00:55:25;12.20;99.90
20911;DHT22;10615;42.702;23.314;2023-04-25T00:56:26;12.20;99.90
20911;DHT22;10615;42.702;23.314;2023-04-25T00:57:27;12.30;99.90
20911;DHT22;10615;42.702;23.314;2023-04-25T00:58:28;12.30;99.90
20911;DHT22;10615;42.702;23.314;2023-04-25T00:59:30;12.40;99.90
20911;DHT22;10615;42.702;23.314;2023-04-25T01:00:31;12.40;99.90
20911;DHT22;10615;42.702;23.314;2023-04-25T01:01:32;12.40;99.90
20911;DHT22;10615;42.702;23.314;2023-04-25T01:02:36;12.40;99.90
20911;DHT22;10615;42.702;23.314;2023-04-25T01:03:38;12.40;99.90
20911;DHT22;10615;42.702;23.314;2023-04-25T01:04:43;12.40;99.90
20911;DHT22;10615;42.702;23.314;2023-04-25T01:05:44;12.40;99.90
20911;DHT22;10615;42.702;23.314;2023-04-25T01:06:45;12.40;99.90
20911;DHT22;10615;42.702;23.314;2023-04-25T01:07:46;12.40;99.90
20911;DHT22;10615;42.702;23.314;2023-04-25T01:08:47;12.40;99.90
20911;DHT22;10615;42.702;23.314;2023-04-25T01:09:48;12.30;99.90
20911;DHT22;10615;42.702;23.314;2023-04-25T01:10:48;12.30;99.90
20911;DHT22;10615;42.702;23.314;2023-04-25T01:11:49;12.20;99.90
20911;DHT22;10615;42.702;23.314;2023-04-25T01:12:50;12.20;99.90
20911;DHT22;10615;42.702;23.314;2023-04-25T01:13:51;12.10;99.90
20911;DHT22;10615;42.702;23.314;2023-04-25T01:14:52;12.10;99.90
20911;DHT22;10615;42.702;23.314;2023-04-25T01:15:52;12.00;99.90
20911;DHT22;10615;42.702;23.314;2023-04-25T01:16:53;12.00;99.90
20911;DHT22;10615;42.702;23.314;2023-04-25T01:17:55;12.00;99.90
20911;DHT22;10615;42.702;23.314;2023-04-25T01:18:56;12.00;99.90
20911;DHT22;10615;42.702;23.314;2023-04-25T01:19:56;12.00;99.90
20911;DHT22;10615;42.702;23.314;2023-04-25T01:21:10;12.00;99.90
20911;DHT22;10615;42.702;23.314;2023-04-25T01:22:11;11.90;99.90
20911;DHT22;10615;42.702;23.314;2023-04-25T01:23:12;11.90;99.90
20911;DHT22;10615;42.702;23.314;2023-04-25T01:24:14;11.90;99.90
20911;DHT22;10615;42.702;23.314;2023-04-25T01:25:15;11.90;99.90
20911;DHT22;10615;42.702;23.314;2023-04-25T01:26:15;11.90;99.90
20911;DHT22;10615;42.702;23.314;2023-04-25T01:27:16;11.90;99.90
20911;DHT22;10615;42.702;23.314;2023-04-25T01:28:18;11.80;99.90
20911;DHT22;10615;42.702;23.314;2023-04-25T01:29:19;11.70;99.90
20911;DHT22;10615;42.702;23.314;2023-04-25T01:30:20;11.70;99.90
20911;DHT22;10615;42.702;23.314;2023-04-25T01:31:21;11.70;99.90
20911;DHT22;10615;42.702;23.314;2023-04-25T01:32:23;11.70;99.90
20911;DHT22;10615;42.702;23.314;2023-04-25T01:33:24;11.70;99.90
20911;DHT22;10615;42.702;23.314;2023-04-25T01:34:25;11.70;99.90
20911;DHT22;10615;42.702;23.314;2023-04-25T01:35:25;11.60;99.90
20911;DHT22;10615;42.702;23.314;2023-04-25T01:36:26;11.60;99.90
20911;DHT22;10615;42.702;23.314;2023-04-25T01:37:27;11.60;99.90
20911;DHT22;10615;42.702;23.314;2023-04-25T01:38:28;11.60;99.90
20911;DHT22;10615;42.702;23.314;2023-04-25T01:39:29;11.60;99.90
20911;DHT22;10615;42.702;23.314;2023-04-25T01:40:30;11.60;99.90
20911;DHT22;10615;42.702;23.314;2023-04-25T01:41:32;11.60;99.90
20911;DHT22;10615;42.702;23.314;2023-04-25T01:42:37;11.60;99.90
20911;DHT22;10615;42.702;23.314;2023-04-25T01:43:37;11.50;99.90
20911;DHT22;10615;42.702;23.314;2023-04-25T01:44:38;11.50;99.90
20911;DHT22;10615;42.702;23.314;2023-04-25T01:45:39;11.50;99.90
20911;DHT22;10615;42.702;23.314;2023-04-25T01:46:41;11.50;99.90
20911;DHT22;10615;42.702;23.314;2023-04-25T01:47:42;11.50;99.90
20911;DHT22;10615;42.702;23.314;2023-04-25T01:48:44;11.40;99.90
20911;DHT22;10615;42.702;23.314;2023-04-25T01:49:45;11.40;99.90
20911;DHT22;10615;42.702;23.314;2023-04-25T01:50:45;11.40;99.90
20911;DHT22;10615;42.702;23.314;2023-04-25T01:51:46;11.40;99.90
20911;DHT22;10615;42.702;23.314;2023-04-25T01:52:47;11.40;99.90
20911;DHT22;10615;42.702;23.314;2023-04-25T01:53:48;11.30;99.90
20911;DHT22;10615;42.702;23.314;2023-04-25T01:54:50;11.30;99.90
20911;DHT22;10615;42.702;23.314;2023-04-25T01:55:51;11.30;99.90
20911;DHT22;10615;42.702;23.314;2023-04-25T01:56:52;11.30;99.90
20911;DHT22;10615;42.702;23.314;2023-04-25T01:57:53;11.30;99.90
20911;DHT22;10615;42.702;23.314;2023-04-25T01:58:54;11.30;99.90
20911;DHT22;10615;42.702;23.314;2023-04-25T01:59:59;11.30;99.90
20911;DHT22;10615;42.702;23.314;2023-04-25T02:01:00;11.30;99.90
20911;DHT22;10615;42.702;23.314;2023-04-25T02:02:01;11.30;99.90
20911;DHT22;10615;42.702;23.314;2023-04-25T02:03:04;11.40;99.90
20911;DHT22;10615;42.702;23.314;2023-04-25T02:04:05;11.40;99.90
20911;DHT22;10615;42.702;23.314;2023-04-25T02:05:06;11.40;99.90
20911;DHT22;10615;42.702;23.314;2023-04-25T02:06:07;11.40;99.90
20911;DHT22;10615;42.702;23.314;2023-04-25T02:07:08;11.40;99.90
20911;DHT22;10615;42.702;23.314;2023-04-25T02:08:09;11.40;99.90
20911;DHT22;10615;42.702;23.314;2023-04-25T02:09:10;11.50;99.90
20911;DHT22;10615;42.702;23.314;2023-04-25T02:10:10;11.50;99.90
20911;DHT22;10615;42.702;23.314;2023-04-25T02:11:30;11.50;99.90
20911;DHT22;10615;42.702;23.314;2023-04-25T02:12:31;11.50;99.90
20911;DHT22;10615;42.702;23.314;2023-04-25T02:13:32;11.60;99.90
20911;DHT22;10615;42.702;23.314;2023-04-25T02:14:33;11.50;99.90
20911;DHT22;10615;42.702;23.314;2023-04-25T02:15:33;11.50;99.90
20911;DHT22;10615;42.702;23.314;2023-04-25T02:16:34;11.50;99.90
20911;DHT22;10615;42.702;23.314;2023-04-25T02:17:36;11.60;99.90
20911;DHT22;10615;42.702;23.314;2023-04-25T02:18:36;11.60;99.90
20911;DHT22;10615;42.702;23.314;2023-04-25T02:19:38;11.50;99.90
20911;DHT22;10615;42.702;23.314;2023-04-25T02:20:39;11.60;99.90
20911;DHT22;10615;42.702;23.314;2023-04-25T02:21:39;11.60;99.90
20911;DHT22;10615;42.702;23.314;2023-04-25T02:22:40;11.60;99.90
20911;DHT22;10615;42.702;23.314;2023-04-25T02:23:41;11.60;99.90
20911;DHT22;10615;42.702;23.314;2023-04-25T02:24:41;11.50;99.90
20911;DHT22;10615;42.702;23.314;2023-04-25T02:25:42;11.50;99.90
20911;DHT22;10615;42.702;23.314;2023-04-25T02:26:43;11.50;99.90
20911;DHT22;10615;42.702;23.314;2023-04-25T02:27:44;11.50;99.90
20911;DHT22;10615;42.702;23.314;2023-04-25T02:28:45;11.50;99.90
20911;DHT22;10615;42.702;23.314;2023-04-25T02:29:45;11.50;99.90
20911;DHT22;10615;42.702;23.314;2023-04-25T02:30:46;11.50;99.90
20911;DHT22;10615;42.702;23.314;2023-04-25T02:31:47;11.50;99.90
20911;DHT22;10615;42.702;23.314;2023-04-25T02:32:47;11.50;99.90
20911;DHT22;10615;42.702;23.314;2023-04-25T02:33:48;11.50;99.90
20911;DHT22;10615;42.702;23.314;2023-04-25T02:34:49;11.50;99.90
20911;DHT22;10615;42.702;23.314;2023-04-25T02:35:49;11.40;99.90
20911;DHT22;10615;42.702;23.314;2023-04-25T02:36:50;11.40;99.90
20911;DHT22;10615;42.702;23.314;2023-04-25T02:37:51;11.40;99.90
20911;DHT22;10615;42.702;23.314;2023-04-25T02:38:51;11.40;99.90
20911;DHT22;10615;42.702;23.314;2023-04-25T02:39:52;11.30;99.90
20911;DHT22;10615;42.702;23.314;2023-04-25T02:40:53;11.30;99.90
20911;DHT22;10615;42.702;23.314;2023-04-25T02:41:54;11.30;99.90
20911;DHT22;10615;42.702;23.314;2023-04-25T02:42:54;11.30;99.90
20911;DHT22;10615;42.702;23.314;2023-04-25T02:43:55;11.30;99.90
20911;DHT22;10615;42.702;23.314;2023-04-25T02:44:56;11.30;99.90
20911;DHT22;10615;42.702;23.314;2023-04-25T02:45:56;11.30;99.90
20911;DHT22;10615;42.702;23.314;2023-04-25T02:46:57;11.30;99.90
20911;DHT22;10615;42.702;23.314;2023-04-25T02:47:57;11.20;99.90
20911;DHT22;10615;42.702;23.314;2023-04-25T02:48:58;11.20;99.90
20911;DHT22;10615;42.702;23.314;2023-04-25T02:49:59;11.20;99.90
20911;DHT22;10615;42.702;23.314;2023-04-25T02:50:59;11.20;99.90
20911;DHT22;10615;42.702;23.314;2023-04-25T02:52:00;11.20;99.90
20911;DHT22;10615;42.702;23.314;2023-04-25T02:53:01;11.20;99.90
20911;DHT22;10615;42.702;23.314;2023-04-25T02:54:01;11.20;99.90
20911;DHT22;10615;42.702;23.314;2023-04-25T02:55:02;11.20;99.90
20911;DHT22;10615;42.702;23.314;2023-04-25T02:56:03;11.20;99.90
20911;DHT22;10615;42.702;23.314;2023-04-25T02:57:04;11.20;99.90
20911;DHT22;10615;42.702;23.314;2023-04-25T02:58:05;11.20;99.90
20911;DHT22;10615;42.702;23.314;2023-04-25T02:59:05;11.20;99.90
20911;DHT22;10615;42.702;23.314;2023-04-25T03:00:07;11.20;99.90
20911;DHT22;10615;42.702;23.314;2023-04-25T03:01:08;11.10;99.90
20911;DHT22;10615;42.702;23.314;2023-04-25T03:02:09;11.10;99.90
20911;DHT22;10615;42.702;23.314;2023-04-25T03:03:10;11.20;99.90
20911;DHT22;10615;42.702;23.314;2023-04-25T03:04:11;11.20;99.90
20911;DHT22;10615;42.702;23.314;2023-04-25T03:05:12;11.20;99.90
20911;DHT22;10615;42.702;23.314;2023-04-25T03:06:12;11.20;99.90
20911;DHT22;10615;42.702;23.314;2023-04-25T03:07:13;11.20;99.90
20911;DHT22;10615;42.702;23.314;2023-04-25T03:08:14;11.20;99.90
20911;DHT22;10615;42.702;23.314;2023-04-25T03:09:14;11.10;99.90
20911;DHT22;10615;42.702;23.314;2023-04-25T03:10:15;11.10;99.90
20911;DHT22;10615;42.702;23.314;2023-04-25T03:11:16;11.20;99.90
20911;DHT22;10615;42.702;23.314;2023-04-25T03:12:16;11.20;99.90
20911;DHT22;10615;42.702;23.314;2023-04-25T03:13:17;11.10;99.90
20911;DHT22;10615;42.702;23.314;2023-04-25T03:14:18;11.10;99.90
20911;DHT22;10615;42.702;23.314;2023-04-25T03:15:18;11.10;99.90
20911;DHT22;10615;42.702;23.314;2023-04-25T03:16:19;11.10;99.90
20911;DHT22;10615;42.702;23.314;2023-04-25T03:17:20;11.10;99.90
20911;DHT22;10615;42.702;23.314;2023-04-25T03:18:20;11.10;99.90
20911;DHT22;10615;42.702;23.314;2023-04-25T03:19:21;11.10;99.90
20911;DHT22;10615;42.702;23.314;2023-04-25T03:20:22;11.10;99.90
20911;DHT22;10615;42.702;23.314;2023-04-25T03:21:23;11.10;99.90
20911;DHT22;10615;42.702;23.314;2023-04-25T03:22:23;11.10;99.90
20911;DHT22;10615;42.702;23.314;2023-04-25T03:23:24;11.10;99.90
20911;DHT22;10615;42.702;23.314;2023-04-25T03:24:25;11.10;99.90
20911;DHT22;10615;42.702;23.314;2023-04-25T03:25:26;11.10;99.90
20911;DHT22;10615;42.702;23.314;2023-04-25T03:26:27;11.10;99.90
20911;DHT22;10615;42.702;23.314;2023-04-25T03:27:27;11.00;99.90
20911;DHT22;10615;42.702;23.314;2023-04-25T03:28:28;11.00;99.90
20911;DHT22;10615;42.702;23.314;2023-04-25T03:29:29;11.00;99.90
20911;DHT22;10615;42.702;23.314;2023-04-25T03:30:30;11.00;99.90
20911;DHT22;10615;42.702;23.314;2023-04-25T03:31:31;11.00;99.90
20911;DHT22;10615;42.702;23.314;2023-04-25T03:32:31;11.10;99.90
20911;DHT22;10615;42.702;23.314;2023-04-25T03:33:32;11.00;99.90
20911;DHT22;10615;42.702;23.314;2023-04-25T03:34:33;11.00;99.90
20911;DHT22;10615;42.702;23.314;2023-04-25T03:35:33;11.10;99.90
20911;DHT22;10615;42.702;23.314;2023-04-25T03:36:34;11.10;99.90
20911;DHT22;10615;42.702;23.314;2023-04-25T03:37:35;11.10;99.90
20911;DHT22;10615;42.702;23.314;2023-04-25T03:38:35;11.10;99.90
20911;DHT22;10615;42.702;23.314;2023-04-25T03:39:36;11.20;99.90
20911;DHT22;10615;42.702;23.314;2023-04-25T03:40:38;11.20;99.90
20911;DHT22;10615;42.702;23.314;2023-04-25T03:41:38;11.20;99.90
20911;DHT22;10615;42.702;23.314;2023-04-25T03:42:39;11.30;99.90
20911;DHT22;10615;42.702;23.314;2023-04-25T03:43:39;11.30;99.90
20911;DHT22;10615;42.702;23.314;2023-04-25T03:44:40;11.20;99.90
20911;DHT22;10615;42.702;23.314;2023-04-25T03:45:41;11.20;99.90
20911;DHT22;10615;42.702;23.314;2023-04-25T03:46:41;11.20;99.90
20911;DHT22;10615;42.702;23.314;2023-04-25T03:47:42;11.30;99.90
20911;DHT22;10615;42.702;23.314;2023-04-25T03:48:43;11.30;99.90
20911;DHT22;10615;42.702;23.314;2023-04-25T03:49:43;11.40;99.90
20911;DHT22;10615;42.702;23.314;2023-04-25T03:50:44;11.50;99.90
20911;DHT22;10615;42.702;23.314;2023-04-25T03:51:45;11.50;99.90
20911;DHT22;10615;42.702;23.314;2023-04-25T03:52:46;11.60;99.90
20911;DHT22;10615;42.702;23.314;2023-04-25T03:53:47;11.60;99.90
20911;DHT22;10615;42.702;23.314;2023-04-25T03:54:48;11.70;99.90
20911;DHT22;10615;42.702;23.314;2023-04-25T03:55:49;11.80;99.90
20911;DHT22;10615;42.702;23.314;2023-04-25T03:56:50;12.00;99.90
20911;DHT22;10615;42.702;23.314;2023-04-25T03:57:50;12.30;99.90
20911;DHT22;10615;42.702;23.314;2023-04-25T03:58:51;12.60;99.90
20911;DHT22;10615;42.702;23.314;2023-04-25T03:59:52;13.10;99.90
20911;DHT22;10615;42.702;23.314;2023-04-25T04:00:52;13.60;99.90
20911;DHT22;10615;42.702;23.314;2023-04-25T04:01:53;14.00;99.90
20911;DHT22;10615;42.702;23.314;2023-04-25T04:02:54;14.50;99.90
20911;DHT22;10615;42.702;23.314;2023-04-25T04:04:56;15.40;99.90
20911;DHT22;10615;42.702;23.314;2023-04-25T04:06:58;16.30;99.90
20911;DHT22;10615;42.702;23.314;2023-04-25T04:07:58;16.70;99.40
20911;DHT22;10615;42.702;23.314;2023-04-25T04:08:59;17.10;97.40
20911;DHT22;10615;42.702;23.314;2023-04-25T04:10:00;17.40;95.50
20911;DHT22;10615;42.702;23.314;2023-04-25T04:11:01;17.50;93.60
20911;DHT22;10615;42.702;23.314;2023-04-25T04:12:01;17.30;92.00
20911;DHT22;10615;42.702;23.314;2023-04-25T04:13:02;17.10;91.60
20911;DHT22;10615;42.702;23.314;2023-04-25T04:14:06;17.20;90.90
20911;DHT22;10615;42.702;23.314;2023-04-25T04:15:07;17.20;90.40
20911;DHT22;10615;42.702;23.314;2023-04-25T04:16:08;16.90;89.50
20911;DHT22;10615;42.702;23.314;2023-04-25T04:17:10;16.50;89.20
20911;DHT22;10615;42.702;23.314;2023-04-25T04:18:10;16.10;90.30
20911;DHT22;10615;42.702;23.314;2023-04-25T04:19:11;15.90;91.30
20911;DHT22;10615;42.702;23.314;2023-04-25T04:20:12;15.70;92.10
20911;DHT22;10615;42.702;23.314;2023-04-25T04:21:12;15.60;92.90
20911;DHT22;10615;42.702;23.314;2023-04-25T04:22:13;15.40;93.50
20911;DHT22;10615;42.702;23.314;2023-04-25T04:23:14;15.30;94.00
20911;DHT22;10615;42.702;23.314;2023-04-25T04:24:15;15.20;94.30
20911;DHT22;10615;42.702;23.314;2023-04-25T04:25:17;15.00;94.80
20911;DHT22;10615;42.702;23.314;2023-04-25T04:26:18;15.00;95.50
20911;DHT22;10615;42.702;23.314;2023-04-25T04:27:19;15.00;96.00
20911;DHT22;10615;42.702;23.314;2023-04-25T04:28:20;14.90;96.40
20911;DHT22;10615;42.702;23.314;2023-04-25T04:29:22;14.80;96.60
20911;DHT22;10615;42.702;23.314;2023-04-25T04:30:24;14.70;96.60
20911;DHT22;10615;42.702;23.314;2023-04-25T04:31:24;14.50;97.10
20911;DHT22;10615;42.702;23.314;2023-04-25T04:32:25;14.40;97.70
20911;DHT22;10615;42.702;23.314;2023-04-25T04:33:26;14.30;98.10
20911;DHT22;10615;42.702;23.314;2023-04-25T04:34:26;14.20;98.70
20911;DHT22;10615;42.702;23.314;2023-04-25T04:35:27;14.20;99.30
20911;DHT22;10615;42.702;23.314;2023-04-25T04:36:28;14.10;99.70
20911;DHT22;10615;42.702;23.314;2023-04-25T04:37:29;14.00;99.90
20911;DHT22;10615;42.702;23.314;2023-04-25T04:38:29;14.00;99.90
20911;DHT22;10615;42.702;23.314;2023-04-25T04:39:30;14.00;99.90
20911;DHT22;10615;42.702;23.314;2023-04-25T04:40:31;14.00;99.90
20911;DHT22;10615;42.702;23.314;2023-04-25T04:41:32;14.00;99.90
20911;DHT22;10615;42.702;23.314;2023-04-25T04:42:33;14.00;99.90
20911;DHT22;10615;42.702;23.314;2023-04-25T04:43:33;13.90;99.90
20911;DHT22;10615;42.702;23.314;2023-04-25T04:44:34;13.80;99.90
20911;DHT22;10615;42.702;23.314;2023-04-25T04:45:36;13.70;99.90
20911;DHT22;10615;42.702;23.314;2023-04-25T04:46:38;13.60;99.90
20911;DHT22;10615;42.702;23.314;2023-04-25T04:47:42;13.60;99.90
20911;DHT22;10615;42.702;23.314;2023-04-25T04:48:43;13.50;99.90
20911;DHT22;10615;42.702;23.314;2023-04-25T04:49:44;13.60;99.90
20911;DHT22;10615;42.702;23.314;2023-04-25T04:50:45;13.60;99.90
20911;DHT22;10615;42.702;23.314;2023-04-25T04:51:46;13.60;99.90
20911;DHT22;10615;42.702;23.314;2023-04-25T04:52:47;13.60;99.90
20911;DHT22;10615;42.702;23.314;2023-04-25T04:53:48;13.60;99.90
20911;DHT22;10615;42.702;23.314;2023-04-25T04:54:48;13.50;99.90
20911;DHT22;10615;42.702;23.314;2023-04-25T04:55:49;13.50;99.90
20911;DHT22;10615;42.702;23.314;2023-04-25T04:56:50;13.50;99.90
20911;DHT22;10615;42.702;23.314;2023-04-25T04:57:52;13.50;99.90
20911;DHT22;10615;42.702;23.314;2023-04-25T04:58:53;13.50;99.90
20911;DHT22;10615;42.702;23.314;2023-04-25T04:59:54;13.50;99.90
20911;DHT22;10615;42.702;23.314;2023-04-25T05:00:54;13.50;99.90
20911;DHT22;10615;42.702;23.314;2023-04-25T05:01:55;13.50;99.90
20911;DHT22;10615;42.702;23.314;2023-04-25T05:02:56;13.50;99.90
20911;DHT22;10615;42.702;23.314;2023-04-25T05:03:57;13.50;99.90
20911;DHT22;10615;42.702;23.314;2023-04-25T05:05:00;13.50;99.90
20911;DHT22;10615;42.702;23.314;2023-04-25T05:06:01;13.50;99.90
20911;DHT22;10615;42.702;23.314;2023-04-25T05:07:02;13.50;99.90
20911;DHT22;10615;42.702;23.314;2023-04-25T05:08:02;13.50;99.90
20911;DHT22;10615;42.702;23.314;2023-04-25T05:09:03;13.50;99.90
20911;DHT22;10615;42.702;23.314;2023-04-25T05:10:04;13.40;99.90
20911;DHT22;10615;42.702;23.314;2023-04-25T05:11:05;13.40;99.90
20911;DHT22;10615;42.702;23.314;2023-04-25T05:12:06;13.40;99.90
20911;DHT22;10615;42.702;23.314;2023-04-25T05:13:07;13.30;99.90
20911;DHT22;10615;42.702;23.314;2023-04-25T05:14:08;13.30;99.90
20911;DHT22;10615;42.702;23.314;2023-04-25T05:15:09;13.30;99.90
20911;DHT22;10615;42.702;23.314;2023-04-25T05:16:09;13.30;99.90
20911;DHT22;10615;42.702;23.314;2023-04-25T05:17:10;13.40;99.90
20911;DHT22;10615;42.702;23.314;2023-04-25T05:18:11;13.40;99.90
20911;DHT22;10615;42.702;23.314;2023-04-25T05:19:12;13.40;99.90
20911;DHT22;10615;42.702;23.314;2023-04-25T05:20:13;13.40;99.90
20911;DHT22;10615;42.702;23.314;2023-04-25T05:21:14;13.30;99.90
20911;DHT22;10615;42.702;23.314;2023-04-25T05:22:15;13.30;99.90
20911;DHT22;10615;42.702;23.314;2023-04-25T05:23:15;13.20;99.90
20911;DHT22;10615;42.702;23.314;2023-04-25T05:24:16;13.20;99.90
20911;DHT22;10615;42.702;23.314;2023-04-25T05:25:17;13.10;99.90
20911;DHT22;10615;42.702;23.314;2023-04-25T05:26:18;13.10;99.90
20911;DHT22;10615;42.702;23.314;2023-04-25T05:27:19;13.10;99.90
20911;DHT22;10615;42.702;23.314;2023-04-25T05:28:20;13.10;99.90
20911;DHT22;10615;42.702;23.314;2023-04-25T05:29:21;13.20;99.90
20911;DHT22;10615;42.702;23.314;2023-04-25T05:30:22;13.20;99.90
20911;DHT22;10615;42.702;23.314;2023-04-25T05:31:23;13.30;99.90
20911;DHT22;10615;42.702;23.314;2023-04-25T05:32:24;13.30;99.90
20911;DHT22;10615;42.702;23.314;2023-04-25T05:33:25;13.40;99.90
20911;DHT22;10615;42.702;23.314;2023-04-25T05:34:26;13.40;99.90
20911;DHT22;10615;42.702;23.314;2023-04-25T05:35:26;13.40;99.90
20911;DHT22;10615;42.702;23.314;2023-04-25T05:36:27;13.50;99.90
20911;DHT22;10615;42.702;23.314;2023-04-25T05:37:28;13.50;99.90
20911;DHT22;10615;42.702;23.314;2023-04-25T05:38:31;13.50;99.90
20911;DHT22;10615;42.702;23.314;2023-04-25T05:39:32;13.50;99.90
20911;DHT22;10615;42.702;23.314;2023-04-25T05:40:32;13.50;99.90
20911;DHT22;10615;42.702;23.314;2023-04-25T05:41:33;13.50;99.90
20911;DHT22;10615;42.702;23.314;2023-04-25T05:42:34;13.50;99.90
20911;DHT22;10615;42.702;23.314;2023-04-25T05:43:34;13.40;99.90
20911;DHT22;10615;42.702;23.314;2023-04-25T05:44:35;13.40;99.90
20911;DHT22;10615;42.702;23.314;2023-04-25T05:45:36;13.50;99.90
20911;DHT22;10615;42.702;23.314;2023-04-25T05:46:37;13.50;99.90
20911;DHT22;10615;42.702;23.314;2023-04-25T05:47:38;13.60;99.90
20911;DHT22;10615;42.702;23.314;2023-04-25T05:48:39;13.70;99.90
20911;DHT22;10615;42.702;23.314;2023-04-25T05:49:40;13.80;99.90
20911;DHT22;10615;42.702;23.314;2023-04-25T05:50:40;13.90;99.90
20911;DHT22;10615;42.702;23.314;2023-04-25T05:51:41;13.90;99.90
20911;DHT22;10615;42.702;23.314;2023-04-25T05:52:42;13.90;99.90
20911;DHT22;10615;42.702;23.314;2023-04-25T05:53:42;14.00;99.90
20911;DHT22;10615;42.702;23.314;2023-04-25T05:54:43;14.00;99.90
20911;DHT22;10615;42.702;23.314;2023-04-25T05:55:44;14.10;99.90
20911;DHT22;10615;42.702;23.314;2023-04-25T05:56:44;14.20;99.90
20911;DHT22;10615;42.702;23.314;2023-04-25T05:57:45;14.40;99.90
20911;DHT22;10615;42.702;23.314;2023-04-25T05:58:46;14.60;99.90
20911;DHT22;10615;42.702;23.314;2023-04-25T05:59:47;14.80;99.90
20911;DHT22;10615;42.702;23.314;2023-04-25T06:00:48;14.90;99.90
20911;DHT22;10615;42.702;23.314;2023-04-25T06:01:48;15.00;99.90
20911;DHT22;10615;42.702;23.314;2023-04-25T06:02:49;15.00;99.90
20911;DHT22;10615;42.702;23.314;2023-04-25T06:03:50;15.10;99.40
20911;DHT22;10615;42.702;23.314;2023-04-25T06:04:53;15.10;98.90
20911;DHT22;10615;42.702;23.314;2023-04-25T06:05:54;15.10;98.60
20911;DHT22;10615;42.702;23.314;2023-04-25T06:06:54;15.10;98.50
20911;DHT22;10615;42.702;23.314;2023-04-25T06:07:55;15.20;98.50
20911;DHT22;10615;42.702;23.314;2023-04-25T06:08:56;15.30;98.30
20911;DHT22;10615;42.702;23.314;2023-04-25T06:09:57;15.40;97.90
20911;DHT22;10615;42.702;23.314;2023-04-25T06:10:57;15.50;97.70
20911;DHT22;10615;42.702;23.314;2023-04-25T06:11:58;15.70;97.40
20911;DHT22;10615;42.702;23.314;2023-04-25T06:12:59;15.90;96.90
20911;DHT22;10615;42.702;23.314;2023-04-25T06:14:00;16.10;96.40
20911;DHT22;10615;42.702;23.314;2023-04-25T06:15:01;16.30;95.60
20911;DHT22;10615;42.702;23.314;2023-04-25T06:16:02;16.40;94.50
20911;DHT22;10615;42.702;23.314;2023-04-25T06:17:03;16.40;93.70
20911;DHT22;10615;42.702;23.314;2023-04-25T06:18:07;16.60;92.90
20911;DHT22;10615;42.702;23.314;2023-04-25T06:19:07;16.60;92.30
20911;DHT22;10615;42.702;23.314;2023-04-25T06:20:09;16.60;91.40
20911;DHT22;10615;42.702;23.314;2023-04-25T06:21:10;16.50;90.70